Time;durP1;ratioP1;P1;durP2;ratioP2;P2;SDS_P1;SDS_P2;PMS_P1;PMS_P2;Temp;Humidity;BMP_temperature;BMP_pressure;BME280_temperature;BME280_humidity;BME280_pressure;Samples;Min_cycle;Max_cycle;Signal;HPM_P1;HPM_P2
2023/05/06 00:01:04;;;;;;;2.60;2.03;;;;;;;15.46;81.20;98860.94;5050931;28;40151;-77
2023/05/06 00:03:33;;;;;;;2.90;2.20;;;;;;;15.49;81.08;98861.66;5068338;28;40976;-77
2023/05/06 00:06:02;;;;;;;2.90;1.87;;;;;;;15.53;80.37;98868.47;5051183;28;42662;-78
2023/05/06 00:08:29;;;;;;;2.10;1.90;;;;;;;15.53;80.87;98857.78;5068092;28;42450;-77
2023/05/06 00:10:57;;;;;;;1.90;1.80;;;;;;;15.59;80.10;98854.63;5034769;28;40433;-78
2023/05/06 00:13:24;;;;;;;2.27;1.40;;;;;;;15.61;80.02;98856.19;5052361;28;41731;-77
2023/05/06 00:15:54;;;;;;;3.17;2.03;;;;;;;15.67;79.75;98862.84;5034478;28;41473;-77
2023/05/06 00:18:22;;;;;;;1.60;1.50;;;;;;;15.55;79.27;98834.50;5050773;28;42473;-78
2023/05/06 00:20:50;;;;;;;2.00;1.63;;;;;;;15.65;78.96;98851.44;5050939;28;40887;-77
2023/05/06 00:23:17;;;;;;;2.03;1.60;;;;;;;15.62;78.95;98849.88;5034511;28;40820;-78
2023/05/06 00:25:45;;;;;;;1.50;1.40;;;;;;;15.56;78.98;98847.75;5051942;28;43533;-77
2023/05/06 00:28:12;;;;;;;1.57;1.37;;;;;;;15.53;79.16;98839.09;5052295;28;42297;-77
2023/05/06 00:30:40;;;;;;;1.57;1.47;;;;;;;15.48;78.90;98843.97;5034306;28;40293;-78
2023/05/06 00:33:09;;;;;;;1.70;1.40;;;;;;;15.44;78.97;98843.38;5051136;28;42777;-77
2023/05/06 00:35:37;;;;;;;2.23;1.73;;;;;;;15.39;79.59;98841.09;5034366;28;41905;-77
2023/05/06 00:38:10;;;;;;;1.60;1.50;;;;;;;15.40;79.37;98847.28;5050923;28;43207;-78
2023/05/06 00:40:38;;;;;;;1.83;1.73;;;;;;;15.42;78.85;98840.00;5050834;28;40087;-77
2023/05/06 00:43:05;;;;;;;1.97;1.77;;;;;;;15.41;79.23;98839.16;5067704;28;40777;-77
2023/05/06 00:45:33;;;;;;;2.40;1.70;;;;;;;15.43;79.52;98831.00;5051896;28;43709;-77
2023/05/06 00:48:02;;;;;;;2.07;1.90;;;;;;;15.39;79.71;98840.22;5034167;28;42310;-78
2023/05/06 00:50:32;;;;;;;2.43;2.23;;;;;;;15.37;79.89;98839.50;5051731;28;39977;-77
2023/05/06 00:53:03;;;;;;;2.57;2.37;;;;;;;15.32;79.96;98839.91;5034491;28;40667;-77
2023/05/06 00:55:31;;;;;;;3.30;2.87;;;;;;;15.23;79.93;98839.78;5033764;28;41521;-77
2023/05/06 00:57:59;;;;;;;2.60;2.40;;;;;;;15.20;80.14;98835.56;5051687;28;43262;-76
2023/05/06 01:00:27;;;;;;;2.53;2.33;;;;;;;15.16;80.80;98831.44;5033993;28;38904;-77
2023/05/06 01:02:55;;;;;;;4.13;2.20;;;;;;;15.12;80.36;98832.66;5033709;28;40728;-77
2023/05/06 01:05:26;;;;;;;2.50;2.30;;;;;;;15.08;80.34;98834.72;5050417;28;42732;-78
2023/05/06 01:08:04;;;;;;;3.97;2.40;;;;;;;15.06;80.57;98838.50;5033935;28;41379;-77
2023/05/06 01:10:36;;;;;;;2.10;2.00;;;;;;;15.04;80.53;98840.44;5032520;28;41196;-76
2023/05/06 01:13:10;;;;;;;2.00;1.90;;;;;;;15.05;80.27;98836.81;5034026;28;40697;-77
2023/05/06 01:15:44;;;;;;;2.47;2.27;;;;;;;14.92;80.24;98820.09;5047639;28;43581;-76
2023/05/06 01:18:16;;;;;;;2.83;2.17;;;;;;;15.08;79.60;98837.41;5050284;28;40973;-77
2023/05/06 01:20:48;;;;;;;1.97;1.87;;;;;;;15.11;80.28;98836.31;5047831;28;40845;-77
2023/05/06 01:23:18;;;;;;;2.03;1.83;;;;;;;15.13;80.13;98838.84;5033617;28;40563;-77
2023/05/06 01:25:46;;;;;;;3.13;2.60;;;;;;;15.16;80.51;98844.78;5033266;28;41708;-77
2023/05/06 01:28:14;;;;;;;2.73;2.40;;;;;;;15.10;80.22;98834.59;5050131;28;42837;-77
2023/05/06 01:30:53;;;;;;;2.03;1.87;;;;;;;15.13;79.82;98823.69;5050123;28;40073;-77
2023/05/06 01:33:28;;;;;;;3.33;3.03;;;;;;;15.23;80.33;98835.31;5066553;28;40651;-77
2023/05/06 01:36:08;;;;;;;2.80;2.60;;;;;;;15.24;80.84;98837.00;5033441;28;42603;-78
2023/05/06 01:38:42;;;;;;;3.13;2.07;;;;;;;15.26;80.58;98840.41;5046926;28;42222;-77
2023/05/06 01:41:16;;;;;;;2.80;1.83;;;;;;;15.24;80.26;98837.00;5048307;28;40016;-77
2023/05/06 01:43:47;;;;;;;2.27;2.03;;;;;;;15.24;79.96;98846.81;5048200;28;41689;-78
2023/05/06 01:46:19;;;;;;;2.13;1.97;;;;;;;15.22;80.02;98836.28;5051267;28;42668;-77
2023/05/06 01:48:50;;;;;;;2.97;2.60;;;;;;;15.20;80.03;98838.25;5033479;28;42272;-77
2023/05/06 01:51:17;;;;;;;2.10;1.90;;;;;;;15.19;80.18;98839.22;5033529;28;38919;-78
2023/05/06 01:53:47;;;;;;;2.00;1.90;;;;;;;15.18;80.08;98848.19;5049825;28;41642;-77
2023/05/06 01:56:15;;;;;;;2.70;2.23;;;;;;;15.17;79.95;98843.81;5049692;28;43436;-78
2023/05/06 01:58:43;;;;;;;1.77;1.67;;;;;;;15.20;79.71;98845.41;5049341;28;42022;-77
2023/05/06 02:01:10;;;;;;;1.97;1.87;;;;;;;15.18;79.42;98842.00;5032646;28;40977;-77
2023/05/06 02:03:38;;;;;;;2.00;1.90;;;;;;;15.23;79.08;98851.31;5046620;28;41845;-77
2023/05/06 02:06:06;;;;;;;2.73;2.50;;;;;;;15.23;79.08;98851.31;5032802;28;42871;-77
2023/05/06 02:08:40;;;;;;;2.23;2.00;;;;;;;15.25;78.90;98853.84;5046872;28;43311;-77
2023/05/06 02:11:10;;;;;;;2.60;2.13;;;;;;;15.24;79.18;98853.00;5033040;28;38880;-77
2023/05/06 02:13:38;;;;;;;2.80;2.43;;;;;;;15.22;79.27;98854.09;5033296;28;41269;-78
2023/05/06 02:16:08;;;;;;;2.57;2.20;;;;;;;15.19;79.34;98857.88;5032956;28;42840;-76
2023/05/06 02:18:36;;;;;;;2.43;2.23;;;;;;;15.14;79.47;98849.41;5032799;28;42161;-77
2023/05/06 02:21:04;;;;;;;2.97;2.60;;;;;;;15.09;79.99;98855.09;5049026;28;40746;-78
2023/05/06 02:23:32;;;;;;;2.53;2.27;;;;;;;15.04;79.94;98845.78;5049399;28;42014;-77
2023/05/06 02:26:00;;;;;;;4.50;2.77;;;;;;;14.98;80.16;98848.94;5050599;28;42852;-77
2023/05/06 02:28:29;;;;;;;2.40;2.10;;;;;;;14.92;79.92;98857.44;5049259;28;42442;-78
2023/05/06 02:30:57;;;;;;;2.33;2.13;;;;;;;14.78;80.18;98841.69;5032594;28;40126;-77
2023/05/06 02:33:25;;;;;;;3.33;2.40;;;;;;;14.78;80.85;98852.38;5032497;28;40722;-77
2023/05/06 02:35:52;;;;;;;2.60;2.40;;;;;;;14.70;80.42;98852.97;5049340;28;42954;-77
2023/05/06 02:38:21;;;;;;;2.57;2.37;;;;;;;14.63;80.43;98855.28;5032377;28;42549;-77
2023/05/06 02:40:49;;;;;;;3.73;2.80;;;;;;;14.59;80.50;98855.63;5049476;28;40752;-77
2023/05/06 02:43:16;;;;;;;4.30;3.80;;;;;;;14.56;81.33;98846.06;5049289;28;42716;-78
2023/05/06 02:45:46;;;;;;;2.90;2.70;;;;;;;14.55;81.56;98843.53;5032497;28;41934;-77
2023/05/06 02:48:13;;;;;;;3.70;2.80;;;;;;;14.54;82.17;98842.69;5048941;28;42470;-76
2023/05/06 02:50:41;;;;;;;3.23;2.93;;;;;;;14.51;81.97;98842.91;5032309;28;40954;-77
2023/05/06 02:53:11;;;;;;;4.20;3.60;;;;;;;14.52;82.40;98835.78;5032352;28;41741;-77
2023/05/06 02:55:39;;;;;;;2.80;2.60;;;;;;;14.48;81.99;98829.81;5032632;28;43105;-78
2023/05/06 02:58:07;;;;;;;3.00;2.70;;;;;;;14.44;81.96;98836.38;5032376;28;40803;-77
2023/05/06 03:00:35;;;;;;;2.90;2.60;;;;;;;14.40;81.94;98842.91;5032035;28;39583;-77
2023/05/06 03:03:04;;;;;;;2.87;2.60;;;;;;;14.34;82.04;98836.19;5032220;28;40801;-77
2023/05/06 03:05:32;;;;;;;2.87;2.67;;;;;;;14.29;82.14;98832.22;5049942;28;42695;-77
2023/05/06 03:08:01;;;;;;;2.50;2.23;;;;;;;14.24;81.97;98837.03;5032236;28;41582;-77
2023/05/06 03:10:29;;;;;;;3.17;2.77;;;;;;;14.20;82.33;98838.25;5048743;28;39918;-77
2023/05/06 03:12:58;;;;;;;4.33;3.50;;;;;;;14.17;84.16;98833.16;5048586;28;42763;-78
2023/05/06 03:15:27;;;;;;;3.60;3.23;;;;;;;14.14;84.01;98844.06;5031877;28;42321;-77
2023/05/06 03:17:55;;;;;;;4.33;3.93;;;;;;;14.05;85.76;98837.63;5048941;28;43184;-77
2023/05/06 03:20:24;;;;;;;3.40;3.10;;;;;;;14.06;85.01;98841.13;5065138;28;39692;-77
2023/05/06 03:22:55;;;;;;;4.33;3.97;;;;;;;13.93;84.50;98831.44;5045901;28;42728;-77
2023/05/06 03:25:24;;;;;;;3.13;2.93;;;;;;;13.98;84.80;98845.22;5031737;28;41507;-77
2023/05/06 03:27:52;;;;;;;3.40;3.10;;;;;;;13.96;85.27;98847.19;5048676;28;43205;-76
2023/05/06 03:30:23;;;;;;;3.90;3.37;;;;;;;13.87;84.65;98837.22;5045541;28;40714;-77
2023/05/06 03:32:55;;;;;;;4.40;4.00;;;;;;;13.88;85.62;98843.38;5032981;28;41587;-76
2023/05/06 03:35:29;;;;;;;4.40;3.73;;;;;;;13.83;86.48;98835.78;5051769;28;42015;-77
2023/05/06 03:38:00;;;;;;;3.80;3.50;;;;;;;13.75;86.08;98827.50;5049225;28;43325;-76
2023/05/06 03:40:34;;;;;;;4.37;3.60;;;;;;;13.82;85.35;98842.06;5048939;28;40923;-77
2023/05/06 03:43:01;;;;;;;3.67;3.37;;;;;;;13.79;84.83;98850.25;5051914;28;41825;-77
2023/05/06 03:45:29;;;;;;;4.07;2.67;;;;;;;13.69;84.98;98838.63;5051505;28;43761;-77
2023/05/06 03:48:00;;;;;;;4.50;3.30;;;;;;;13.71;84.63;98846.50;5035210;28;41163;-77
2023/05/06 03:50:30;;;;;;;3.20;2.90;;;;;;;13.69;84.03;98854.59;5035077;28;38957;-77
2023/05/06 03:52:58;;;;;;;2.70;2.50;;;;;;;13.69;84.17;98859.06;5035286;28;40498;-76
2023/05/06 03:55:28;;;;;;;4.17;2.90;;;;;;;13.68;83.98;98858.22;5035161;28;41382;-77
2023/05/06 03:57:57;;;;;;;2.40;2.17;;;;;;;13.51;83.70;98840.00;5035248;28;41213;-77
2023/05/06 04:00:25;;;;;;;2.90;2.70;;;;;;;13.65;83.50;98869.09;5034895;28;40103;-77
2023/05/06 04:02:55;;;;;;;2.80;2.60;;;;;;;13.63;83.36;98865.69;5034639;28;41232;-76
2023/05/06 04:05:31;;;;;;;3.00;2.80;;;;;;;13.61;83.37;98860.47;5034847;28;42806;-77
2023/05/06 04:07:59;;;;;;;3.37;3.07;;;;;;;13.64;83.18;98870.88;5051301;28;43351;-77
2023/05/06 04:10:27;;;;;;;3.23;2.93;;;;;;;13.69;83.42;98870.56;5034681;28;39366;-76
2023/05/06 04:13:01;;;;;;;3.87;3.47;;;;;;;13.76;83.62;98870.94;5048361;28;42914;-76
2023/05/06 04:15:36;;;;;;;5.40;4.27;;;;;;;13.79;84.28;98871.56;5048231;28;43508;-76
2023/05/06 04:18:08;;;;;;;4.90;3.77;;;;;;;13.83;84.36;98875.69;5034683;28;42458;-78
2023/05/06 04:20:40;;;;;;;3.73;3.10;;;;;;;13.89;83.97;98879.69;5050846;28;40389;-77
2023/05/06 04:23:08;;;;;;;3.67;3.37;;;;;;;13.90;84.04;98874.25;5051157;28;41832;-77
2023/05/06 04:25:36;;;;;;;3.10;2.90;;;;;;;14.02;83.69;98880.47;5050725;28;42605;-77
2023/05/06 04:28:05;;;;;;;3.50;3.20;;;;;;;14.09;83.99;98883.53;5050592;28;43207;-77
2023/05/06 04:30:33;;;;;;;3.30;3.10;;;;;;;14.17;83.23;98881.09;5050861;28;42120;-77
2023/05/06 04:33:02;;;;;;;3.33;3.03;;;;;;;14.26;83.13;98883.06;5034143;28;41963;-77
2023/05/06 04:35:31;;;;;;;3.83;3.53;;;;;;;14.36;83.20;98876.03;5033653;28;43310;-77
2023/05/06 04:38:02;;;;;;;3.60;3.30;;;;;;;14.42;83.05;98880.09;5034158;28;41938;-77
2023/05/06 04:40:33;;;;;;;3.63;2.90;;;;;;;14.46;82.22;98871.75;5034252;28;39084;-77
2023/05/06 04:43:03;;;;;;;5.00;4.60;;;;;;;14.65;82.46;98890.66;5033972;28;40545;-77
2023/05/06 04:45:33;;;;;;;3.60;3.20;;;;;;;14.71;82.21;98887.50;5050433;28;42642;-77
2023/05/06 04:48:01;;;;;;;2.93;2.73;;;;;;;14.77;82.12;98887.97;5034035;28;41294;-79
2023/05/06 04:50:29;;;;;;;3.93;3.63;;;;;;;14.88;81.96;98898.66;5050481;28;40030;-77
2023/05/06 04:52:58;;;;;;;3.33;3.03;;;;;;;14.96;81.85;98901.56;5033761;28;40847;-76
2023/05/06 04:55:27;;;;;;;4.30;3.33;;;;;;;15.04;82.02;98899.97;5033679;28;42572;-77
2023/05/06 04:57:55;;;;;;;4.37;3.97;;;;;;;15.10;81.89;98898.63;5033950;28;42261;-78
2023/05/06 05:00:25;;;;;;;4.10;3.80;;;;;;;15.11;81.77;98895.00;5050286;28;40018;-77
2023/05/06 05:02:53;;;;;;;4.10;3.80;;;;;;;15.10;81.42;98893.28;5050292;28;41626;-77
2023/05/06 05:05:21;;;;;;;4.70;3.20;;;;;;;15.28;81.25;98912.31;5067227;28;42945;-77
2023/05/06 05:07:52;;;;;;;3.87;3.33;;;;;;;15.39;81.46;98914.97;5047619;28;43259;-78
2023/05/06 05:10:20;;;;;;;4.47;4.07;;;;;;;15.41;81.22;98908.53;5050675;28;40999;-77
2023/05/06 05:12:51;;;;;;;3.60;3.33;;;;;;;15.36;81.08;98916.03;5050465;28;41912;-77
2023/05/06 05:15:19;;;;;;;4.83;4.30;;;;;;;15.31;81.50;98912.06;5050421;28;42633;-77
2023/05/06 05:17:48;;;;;;;3.97;3.20;;;;;;;15.28;81.48;98912.31;5033654;28;42692;-77
2023/05/06 05:20:16;;;;;;;3.00;2.70;;;;;;;15.16;81.50;98892.81;5050367;28;41680;-78
2023/05/06 05:22:44;;;;;;;4.57;3.40;;;;;;;15.29;81.31;98920.19;5050162;28;41878;-77
2023/05/06 05:25:12;;;;;;;3.57;3.27;;;;;;;15.21;81.08;98901.28;5033594;28;43029;-77
2023/05/06 05:27:41;;;;;;;3.90;3.60;;;;;;;15.38;81.13;98916.78;5049658;28;42224;-77
2023/05/06 05:30:11;;;;;;;3.43;3.13;;;;;;;15.46;81.28;98917.00;5050100;28;39962;-78
2023/05/06 05:32:39;;;;;;;4.23;3.20;;;;;;;15.55;80.72;98919.94;5050749;23;40399;-78
2023/05/06 05:35:09;;;;;;;2.97;2.77;;;;;;;15.59;80.36;98908.00;5013746;28;41897;-77
2023/05/06 05:37:38;;;;;;;3.10;2.70;;;;;;;15.67;80.31;98909.09;5046617;28;42084;-78
2023/05/06 05:40:08;;;;;;;4.97;3.57;;;;;;;15.86;80.13;98923.56;5046767;28;40880;-77
2023/05/06 05:42:38;;;;;;;3.60;3.30;;;;;;;16.02;79.68;98935.53;5029681;28;41149;-77
2023/05/06 05:45:13;;;;;;;3.23;2.97;;;;;;;16.16;79.16;98935.25;5030094;28;42834;-77
2023/05/06 05:47:41;;;;;;;4.20;3.10;;;;;;;16.30;78.92;98941.25;5029564;28;42341;-76
2023/05/06 05:50:10;;;;;;;3.33;3.03;;;;;;;16.41;78.35;98933.16;5013831;28;38764;-77
2023/05/06 05:52:38;;;;;;;3.90;3.60;;;;;;;16.55;77.88;98943.53;5029922;28;41847;-76
2023/05/06 05:55:07;;;;;;;3.50;3.20;;;;;;;16.66;77.67;98938.13;5012790;28;42573;-77
2023/05/06 06:00:40;;;;;;;3.57;3.27;;;;;;;16.87;77.27;98936.25;5006879;23;20248;-76
2023/05/06 06:03:12;;;;;;;4.33;3.87;;;;;;;16.99;77.26;98947.72;4952862;28;41935;-76
2023/05/06 06:05:40;;;;;;;4.30;3.90;;;;;;;17.08;76.57;98946.91;4954699;28;42969;-76
2023/05/06 06:08:08;;;;;;;5.57;3.60;;;;;;;17.16;75.33;98954.28;4954395;28;43200;-76
2023/05/06 06:10:37;;;;;;;3.83;3.43;;;;;;;17.32;75.40;98943.91;4971756;28;40912;-76
2023/05/06 06:13:11;;;;;;;4.03;3.63;;;;;;;17.37;75.03;98920.25;4938443;28;40349;-76
2023/05/06 06:15:40;;;;;;;4.40;3.50;;;;;;;17.57;74.65;98938.03;4938171;28;43200;-76
2023/05/06 06:18:08;;;;;;;3.60;3.27;;;;;;;17.78;73.56;98935.31;4954283;28;43147;-77
2023/05/06 06:20:38;;;;;;;4.20;3.80;;;;;;;18.12;72.02;98943.78;4938140;28;38805;-76
2023/05/06 06:23:05;;;;;;;3.93;3.63;;;;;;;18.26;71.17;98950.56;4954274;28;41631;-76
2023/05/06 06:25:33;;;;;;;4.07;3.50;;;;;;;18.33;71.03;98956.19;4938051;28;41674;-77
2023/05/06 06:28:01;;;;;;;4.13;3.33;;;;;;;18.50;70.77;98947.44;4937914;28;41386;-76
2023/05/06 06:30:29;;;;;;;3.50;3.10;;;;;;;18.90;69.37;98956.13;4937789;28;40129;-76
2023/05/06 06:33:00;;;;;;;4.17;3.77;;;;;;;19.32;67.73;98966.41;4937902;28;40777;-76
2023/05/06 06:35:28;;;;;;;2.97;2.77;;;;;;;19.60;67.19;98952.00;4954285;28;42886;-76
2023/05/06 06:37:56;;;;;;;3.77;3.10;;;;;;;19.67;66.70;98966.53;4938145;28;41471;-75
2023/05/06 06:40:23;;;;;;;3.50;3.20;;;;;;;19.70;66.17;98960.00;4953830;28;39016;-76
2023/05/06 06:42:51;;;;;;;3.03;2.83;;;;;;;19.84;66.42;98962.19;4937904;28;41262;-77
2023/05/06 06:45:33;;;;;;;4.10;2.53;;;;;;;20.11;65.17;98958.59;4950785;28;42763;-76
2023/05/06 06:48:02;;;;;;;3.13;2.83;;;;;;;20.24;64.91;98969.81;4953461;28;41475;-77
2023/05/06 06:50:30;;;;;;;3.27;2.97;;;;;;;20.27;64.28;98974.03;4953761;28;40040;-76
2023/05/06 06:52:58;;;;;;;2.87;2.57;;;;;;;20.23;64.27;98972.66;4937909;28;41285;-76
2023/05/06 06:55:26;;;;;;;5.17;2.90;;;;;;;20.20;64.62;98962.19;4953681;28;42848;-76
2023/05/06 06:57:53;;;;;;;2.50;2.30;;;;;;;20.20;64.46;98963.03;4953355;28;42357;-77
2023/05/06 07:00:21;;;;;;;4.40;2.80;;;;;;;20.22;64.23;98966.44;4937484;28;41202;-77
2023/05/06 07:02:49;;;;;;;3.37;2.63;;;;;;;20.35;64.06;98971.41;4953488;28;41262;-76
2023/05/06 07:05:18;;;;;;;1.90;1.80;;;;;;;20.61;63.46;98983.09;4937675;28;41988;-77
2023/05/06 07:07:46;;;;;;;2.47;2.27;;;;;;;20.77;63.89;98971.63;4954105;28;42348;-77
2023/05/06 07:10:14;;;;;;;2.60;2.40;;;;;;;20.84;63.35;98978.06;4957220;28;39937;-77
2023/05/06 07:12:42;;;;;;;2.10;1.90;;;;;;;20.92;63.12;98996.94;4956861;28;40431;-77
2023/05/06 07:15:10;;;;;;;4.73;2.40;;;;;;;20.99;61.99;98992.63;4940592;28;41967;-76
2023/05/06 07:17:38;;;;;;;2.63;1.83;;;;;;;21.10;61.19;99000.44;4973994;28;43204;-78
2023/05/06 07:20:07;;;;;;;2.30;2.10;;;;;;;21.16;60.77;99005.19;4940775;28;40080;-76
2023/05/06 07:22:36;;;;;;;2.63;1.60;;;;;;;21.33;61.41;99011.56;4956487;28;40902;-77
2023/05/06 07:25:05;;;;;;;2.13;1.60;;;;;;;21.56;60.83;99005.59;4974089;28;42654;-77
2023/05/06 07:27:32;;;;;;;1.93;1.73;;;;;;;21.79;60.07;98994.06;4973982;28;42534;-77
2023/05/06 07:30:00;;;;;;;2.60;1.77;;;;;;;22.01;60.38;98994.47;4940813;28;39926;-78
2023/05/06 07:32:28;;;;;;;1.93;1.83;;;;;;;22.20;60.58;98994.19;4973973;28;41736;-77
2023/05/06 07:34:56;;;;;;;3.43;2.07;;;;;;;22.33;58.89;99004.50;4973938;28;42841;-78
2023/05/06 07:37:23;;;;;;;4.43;2.00;;;;;;;22.46;57.50;99000.28;4956351;28;42424;-77
2023/05/06 07:39:52;;;;;;;2.77;1.90;;;;;;;22.58;57.27;99003.50;4940841;28;40009;-79
2023/05/06 07:42:20;;;;;;;2.90;1.90;;;;;;;22.79;56.03;99013.81;4956817;28;42641;-78
2023/05/06 07:48:38;;;;;;;2.93;1.87;;;;;;;22.84;54.08;98954.75;4918242;28;42569;-78
2023/05/06 07:51:32;;;;;;;2.50;1.50;;;;;;;23.32;52.08;98979.97;4956098;28;41001;-78
2023/05/06 07:54:00;;;;;;;1.60;1.20;;;;;;;23.79;51.26;99037.59;4956347;28;40764;-78
2023/05/06 07:56:29;;;;;;;2.07;1.53;;;;;;;24.06;51.54;99030.03;4956632;28;43814;-78
2023/05/06 07:58:58;;;;;;;1.57;1.47;;;;;;;24.34;50.69;99042.09;4955887;28;42285;-78
2023/05/06 08:01:25;;;;;;;2.83;1.87;;;;;;;24.51;49.75;99043.66;4956352;28;40288;-78
2023/05/06 08:03:53;;;;;;;3.67;1.67;;;;;;;24.85;49.48;99045.09;4956409;28;41706;-77
2023/05/06 08:06:21;;;;;;;2.67;1.70;;;;;;;25.20;48.18;99065.31;4940166;28;42857;-79
2023/05/06 08:08:49;;;;;;;1.67;1.43;;;;;;;25.47;46.88;99061.97;4956179;28;41338;-79
2023/05/06 08:11:17;;;;;;;2.57;1.63;;;;;;;25.69;46.77;99061.09;4956494;28;39936;-79
2023/05/06 08:13:47;;;;;;;3.27;1.73;;;;;;;25.77;47.19;99063.69;4955757;28;41205;-79
2023/05/06 08:16:14;;;;;;;1.43;1.33;;;;;;;25.92;46.86;99066.41;4956239;28;41818;-78
2023/05/06 08:18:42;;;;;;;3.10;1.80;;;;;;;26.31;45.68;99070.69;4955463;28;41021;-79
2023/05/06 08:21:10;;;;;;;2.47;1.93;;;;;;;26.95;45.07;99079.75;4956429;28;40789;-78
2023/05/06 08:23:38;;;;;;;2.40;1.80;;;;;;;27.75;43.95;99084.75;4973479;28;41819;-79
2023/05/06 08:26:06;;;;;;;1.97;1.70;;;;;;;28.46;40.51;99109.00;4939885;28;42963;-79
2023/05/06 08:28:33;;;;;;;1.67;1.57;;;;;;;28.84;40.61;99102.00;4955981;28;42123;-79
2023/05/06 08:31:02;;;;;;;2.10;1.60;;;;;;;29.17;39.06;99112.13;4956058;28;38793;-79
2023/05/06 08:33:31;;;;;;;2.17;1.30;;;;;;;29.30;39.18;99109.41;4955988;28;42494;-79
2023/05/06 08:35:59;;;;;;;1.83;1.40;;;;;;;29.68;39.03;99112.34;4956218;28;43262;-80
2023/05/06 08:38:26;;;;;;;2.87;2.10;;;;;;;30.15;36.93;99124.03;4955581;28;42108;-79
2023/05/06 08:40:54;;;;;;;2.27;1.57;;;;;;;31.03;36.02;99123.16;4955939;28;40692;-79
2023/05/06 08:43:26;;;;;;;1.50;1.40;;;;;;;32.23;33.46;99145.78;4955552;28;41765;-80
2023/05/06 08:45:54;;;;;;;2.87;1.47;;;;;;;32.80;33.17;99127.13;4956065;28;42328;-78
2023/05/06 08:48:24;;;;;;;2.37;1.50;;;;;;;33.27;32.55;99141.03;4955685;28;41437;-79
2023/05/06 08:50:55;;;;;;;1.57;1.40;;;;;;;33.38;31.40;99137.50;4939816;28;39826;-79
2023/05/06 08:53:22;;;;;;;2.50;1.10;;;;;;;33.01;31.95;99137.56;4939529;28;40708;-78
2023/05/06 08:55:54;;;;;;;3.27;1.30;;;;;;;32.38;32.29;99138.00;4955594;28;41747;-80
2023/05/06 08:58:24;;;;;;;3.13;1.43;;;;;;;32.23;31.97;99139.47;4953675;28;43287;-79
2023/05/06 09:00:52;;;;;;;2.07;1.10;;;;;;;32.10;32.78;99119.31;4952815;28;39932;-81
2023/05/06 09:03:20;;;;;;;2.30;1.40;;;;;;;31.99;32.29;99138.44;4938985;28;41551;-79
2023/05/06 09:05:49;;;;;;;0.93;0.90;;;;;;;31.35;33.25;99131.41;4955285;28;43448;-79
2023/05/06 09:08:17;;;;;;;1.17;1.00;;;;;;;31.11;33.83;99124.84;4939238;28;41282;-80
2023/05/06 09:10:46;;;;;;;1.53;1.33;;;;;;;31.43;33.29;99123.75;4939642;28;39180;-80
2023/05/06 09:13:15;;;;;;;0.90;0.90;;;;;;;32.48;30.88;99137.47;4955152;28;40856;-79
2023/05/06 09:15:47;;;;;;;1.33;1.17;;;;;;;33.58;28.25;99154.47;4955150;28;45347;-79
2023/05/06 09:18:16;;;;;;;1.02;0.93;;;;;;;34.52;29.11;99149.75;4955404;28;42117;-79
2023/05/06 09:20:46;;;;;;;0.85;0.85;;;;;;;35.38;27.71;99154.19;4972776;28;40095;-79
2023/05/06 09:23:17;;;;;;;1.52;1.13;;;;;;;35.88;26.63;99165.25;4954979;28;42916;-78
2023/05/06 09:25:48;;;;;;;1.55;1.00;;;;;;;34.82;27.28;99152.34;4956348;28;20204;-80
2023/05/06 09:28:16;;;;;;;1.40;1.00;;;;;;;33.54;29.38;99136.78;4954353;28;41510;-80
2023/05/06 09:30:46;;;;;;;1.17;1.07;;;;;;;32.47;31.14;99119.34;4954244;28;40756;-80
2023/05/06 09:33:14;;;;;;;1.77;1.20;;;;;;;31.61;32.09;99114.75;4938907;28;40803;-77
2023/05/06 09:35:44;;;;;;;2.63;1.50;;;;;;;31.38;31.97;99098.97;4938960;28;41909;-80
2023/05/06 09:38:12;;;;;;;2.67;1.40;;;;;;;32.15;30.47;99126.84;4972326;28;42471;-78
2023/05/06 09:40:41;;;;;;;1.50;1.00;;;;;;;32.10;30.38;99085.59;4955120;28;40069;-78
2023/05/06 09:43:09;;;;;;;1.00;1.00;;;;;;;32.87;30.05;99122.41;4938869;28;40759;-78
2023/05/06 09:45:37;;;;;;;1.27;0.90;;;;;;;33.51;29.35;99120.75;4938721;28;41766;-78
2023/05/06 09:48:08;;;;;;;1.20;0.90;;;;;;;34.50;27.90;99143.66;4972168;28;42141;-79
2023/05/06 09:50:36;;;;;;;1.47;1.00;;;;;;;34.92;27.29;99141.50;4955008;28;38957;-78
2023/05/06 09:53:05;;;;;;;1.17;1.00;;;;;;;34.71;26.42;99137.50;4969900;28;41496;-79
2023/05/06 09:55:34;;;;;;;1.73;1.10;;;;;;;34.37;28.24;99130.22;4954702;28;41862;-79
2023/05/06 09:58:06;;;;;;;1.53;1.10;;;;;;;33.99;28.05;99117.81;4950969;28;42355;-79
2023/05/06 10:00:35;;;;;;;1.20;1.00;;;;;;;33.58;29.30;99115.16;4952546;28;40270;-78
2023/05/06 10:03:04;;;;;;;1.60;1.10;;;;;;;32.95;28.58;99078.16;4932401;28;42042;-78
2023/05/06 10:05:33;;;;;;;1.13;0.83;;;;;;;33.00;28.36;99108.50;4972069;28;43746;-79
2023/05/06 10:08:03;;;;;;;1.10;0.90;;;;;;;32.99;28.50;99112.31;4938031;28;42245;-78
2023/05/06 10:10:32;;;;;;;1.77;1.00;;;;;;;32.44;28.21;99123.38;4938811;28;39993;-78
2023/05/06 10:13:02;;;;;;;2.13;1.13;;;;;;;32.07;29.71;99113.44;4971514;28;41799;-78
2023/05/06 10:15:33;;;;;;;1.23;0.97;;;;;;;31.97;29.86;99104.94;4954515;28;42931;-78
2023/05/06 10:18:01;;;;;;;1.47;1.07;;;;;;;31.61;30.93;99092.84;4934741;28;41035;-78
2023/05/06 10:20:31;;;;;;;0.90;0.80;;;;;;;31.33;29.80;99100.69;4935595;28;40883;-78
2023/05/06 10:23:05;;;;;;;0.80;0.80;;;;;;;31.11;31.17;99096.66;4947436;28;43829;-79
2023/05/06 10:25:37;;;;;;;1.60;0.70;;;;;;;31.01;31.89;99088.91;4968982;28;43002;-78
2023/05/06 10:28:06;;;;;;;1.70;1.00;;;;;;;30.99;31.85;99083.66;4954411;28;42440;-78
2023/05/06 10:30:36;;;;;;;1.27;0.90;;;;;;;31.21;30.93;99069.63;4938403;28;38725;-79
2023/05/06 10:33:07;;;;;;;2.57;0.90;;;;;;;31.69;31.01;99083.53;4952554;28;41968;-78
2023/05/06 10:35:47;;;;;;;1.37;1.10;;;;;;;32.08;31.63;99065.81;4954897;28;42644;-78
2023/05/06 10:38:21;;;;;;;3.17;1.63;;;;;;;32.99;29.16;99084.03;4938238;28;41180;-79
2023/05/06 10:40:50;;;;;;;0.73;0.73;;;;;;;33.74;29.40;99085.06;4968928;28;40747;-79
2023/05/06 10:43:28;;;;;;;2.17;1.00;;;;;;;33.87;27.58;99109.59;4940586;28;41938;-79
2023/05/06 10:46:03;;;;;;;1.07;0.73;;;;;;;33.03;29.04;99094.28;4942120;28;42164;-78
2023/05/06 10:48:31;;;;;;;1.20;1.03;;;;;;;32.38;29.87;99087.81;4941635;28;42499;-79
2023/05/06 10:51:25;;;;;;;1.20;1.00;;;;;;;31.87;30.88;99080.81;4957746;28;38823;-78
2023/05/06 10:54:01;;;;;;;1.80;0.83;;;;;;;31.66;29.94;99084.81;4958006;28;40723;-79
2023/05/06 10:56:30;;;;;;;3.13;1.00;;;;;;;32.44;30.45;99068.53;4957635;28;41569;-79
2023/05/06 10:59:03;;;;;;;1.70;1.53;;;;;;;32.78;28.91;99083.47;4974608;28;42370;-78
2023/05/06 11:01:32;;;;;;;2.33;1.00;;;;;;;32.86;30.37;99068.59;4957818;28;40063;-79
2023/05/06 11:04:05;;;;;;;1.77;1.20;;;;;;;33.17;29.63;99060.06;4957488;28;41877;-79
2023/05/06 11:06:34;;;;;;;1.53;1.30;;;;;;;33.83;27.07;99080.06;4941668;28;41828;-79
2023/05/06 11:09:04;;;;;;;0.97;0.90;;;;;;;34.59;26.40;99085.28;4957344;28;43049;-79
2023/05/06 11:11:51;;;;;;;1.30;1.10;;;;;;;35.64;25.82;99086.56;4957395;28;40685;-79
2023/05/06 11:14:27;;;;;;;2.65;1.02;;;;;;;36.52;24.52;99093.88;4956894;28;41817;-79
2023/05/06 11:16:58;;;;;;;1.83;0.75;;;;;;;37.52;24.73;99089.63;4974768;28;43220;-79
2023/05/06 11:19:27;;;;;;;1.80;1.00;;;;;;;38.24;23.98;99091.75;4940956;28;42180;-79
2023/05/06 11:21:56;;;;;;;0.88;0.80;;;;;;;38.09;24.12;99087.00;4956811;28;39702;-79
2023/05/06 11:24:28;;;;;;;0.90;0.80;;;;;;;37.35;24.05;99086.16;4956918;28;42081;-79
2023/05/06 11:26:58;;;;;;;2.05;0.85;;;;;;;37.19;23.84;99088.00;4941249;28;42861;-80
2023/05/06 11:29:27;;;;;;;1.60;1.00;;;;;;;37.06;24.13;99080.13;4956770;28;42318;-79
2023/05/06 11:31:56;;;;;;;0.82;0.82;;;;;;;36.32;24.71;99077.09;4941243;28;40251;-80
2023/05/06 11:34:26;;;;;;;1.87;1.20;;;;;;;35.41;25.90;99064.72;4956847;28;42096;-80
2023/05/06 11:37:03;;;;;;;0.83;0.80;;;;;;;34.59;26.60;99057.78;4956970;28;41878;-78
2023/05/06 11:39:32;;;;;;;2.17;0.97;;;;;;;33.98;26.93;99054.84;4956811;28;41368;-80
2023/05/06 11:42:01;;;;;;;1.97;0.90;;;;;;;33.36;27.60;99063.59;4974348;28;41022;-80
2023/05/06 11:44:31;;;;;;;3.23;1.20;;;;;;;32.71;28.18;99054.44;4956818;28;42797;-80
2023/05/06 11:47:04;;;;;;;1.20;1.07;;;;;;;32.34;28.47;99054.53;4956856;28;41874;-81
2023/05/06 11:49:36;;;;;;;2.00;1.20;;;;;;;31.97;28.60;99064.66;4956983;28;42338;-80
2023/05/06 11:52:05;;;;;;;3.03;0.97;;;;;;;31.42;27.53;99055.53;4971447;28;40906;-79